Ouzinkie, Alaska
Current Conditions -  °F | °C
As of 4:53 PM on Saturday 22 Nov 2014 (Local Time) from PADQ Reporting Station
Broken Clouds Broken Clouds  
Wind Chill: 32°   Ceiling: 12000
Heat Index: 36°   Visibility: 10mi
Dew Point: 35°   Wind: 5mph
Humidity: 97%   Direction: 260°W
Pressure: 29.08"   Gusts: NA
Location:  57.92°N, 152.5°W
Report Text: PADQ 230153Z 26004KT 10SM FEW022 SCT030 BKN120 02/02 A2908 RMK AO2 SLP847 T00220017 $
Loading
Personal Weather Stations






























Interactive Weather Map New forecast layout! Learn more

10-Day Weather Forecast

Advertisements
Track Severe Weather on mobile